Weskan, KS (67762)

1:24 AM MDT on August 28, 2014 (GMT -0600)
Rattlesnake Ridge | Change Station
CLOSE
Current Station
Personal Weather Station
Location: Wallace, KS
Elevation: 3311 ft
Nearby Weather Stations
Active Advisory: Flash Flood Watch

Elev 3311 ft 38.89 °N, 101.58 °W | Updated 7 seconds ago

Mostly Cloudy
Mostly Cloudy
68.8 °F
Feels Like 68.8 °F
N
6.0
Wind Variable Wind from NNW
Gusts 12.0 mph

Today
High -- | Low -- °F
--% Chance of Precip.
Yesterday
High -- | Low -- °F
Precip. -- in
6:13 AM 7:24 PM
Waxing Crescent, 7% visible
Pressure 29.95 in
Visibility 10.0 miles
Clouds Mostly Cloudy 600 ft
Dew Point 65 °F
Humidity 88%
Rainfall 0.00 in
Snow Depth Not available.
UV 0.0 out of 12
Pollen 8.00 out of 12
Air Quality Not available.
Flu Activity Not available.
METAR KITR 280653Z AUTO 35010KT 10SM BKN006 16/14 A3009 RMK AO2 PK WND 33028/0601 LTG DSNT SE RAE16 SLP142 P0001 T01560144 402670156

More Conditions Fewer Conditions

Pressure 29.95 in
Visibility 10.0 miles
Clouds Mostly Cloudy 600 ft
Dew Point 65 °F
Humidity 88%
Rainfall 0.00 in
Snow Depth Not available.
UV 0.0 out of 12
Pollen 8.00 out of 12
Air Quality Not available.
Flu Activity Not available.
METAR KITR 280653Z AUTO 35010KT 10SM BKN006 16/14 A3009 RMK AO2 PK WND 33028/0601 LTG DSNT SE RAE16 SLP142 P0001 T01560144 402670156

More Conditions Fewer Conditions

10-Day Weather Forecast

Almanac

Astronomy

Aug. 28, 2014 Rise Set
Actual Time 6:13 AM MDT 7:24 PM MDT
Civil Twilight 5:45 AM MDT 7:51 PM MDT
Nautical Twilight 5:12 AM MDT 8:24 PM MDT
Astronomical Twilight 4:38 AM MDT 8:58 PM MDT
Moon 9:05 AM MDT 8:51 PM MDT
Length of Visible Light 14h 05m
Length of Day
13h 10m
Tomorrow will be 2m 24s shorter.
Waxing Crescent, 7% of the Moon is Illuminated
Today
Waxing Crescent
Sep 2
First Quarter
Sep 8
Full
Sep 15
Last Quarter
Sep 24
New

Today's Extremes

State Highs State Lows

Community

WunderPhotos

Upload Photos

1,747,912 photos uploaded!

Nearby

Snow Depth

Station Depth Elevation
No new snow has been reported.

Earthquake Activity

City Distance Mag. Time & Date
No recent earthquake activity has been reported nearby.
Minimum magnitude displayed is 2.5.

Coastal Water Temperatures

Place Temperature
No Stations Reporting

Nearby Weather Stations